sensor_id;sensor_type;location;lat;lon;timestamp;P1;durP1;ratioP1;P2;durP2;ratioP2
28174;SDS011;59417;44.788;10.334;2023-02-22T00:02:08;83.90;;;51.50;;
28174;SDS011;59417;44.788;10.334;2023-02-22T00:04:49;83.45;;;51.95;;
28174;SDS011;59417;44.788;10.334;2023-02-22T00:07:15;85.78;;;53.03;;
28174;SDS011;59417;44.788;10.334;2023-02-22T00:09:41;85.03;;;51.95;;
28174;SDS011;59417;44.788;10.334;2023-02-22T00:12:12;85.15;;;51.70;;
28174;SDS011;59417;44.788;10.334;2023-02-22T00:14:38;85.65;;;53.58;;
28174;SDS011;59417;44.788;10.334;2023-02-22T00:17:04;90.75;;;54.58;;
28174;SDS011;59417;44.788;10.334;2023-02-22T00:19:33;88.65;;;53.00;;
28174;SDS011;59417;44.788;10.334;2023-02-22T00:22:04;83.10;;;53.67;;
28174;SDS011;59417;44.788;10.334;2023-02-22T00:24:33;90.65;;;54.65;;
28174;SDS011;59417;44.788;10.334;2023-02-22T00:27:02;78.60;;;52.65;;
28174;SDS011;59417;44.788;10.334;2023-02-22T00:29:30;90.55;;;54.58;;
28174;SDS011;59417;44.788;10.334;2023-02-22T00:31:58;87.55;;;53.22;;
28174;SDS011;59417;44.788;10.334;2023-02-22T00:34:27;80.93;;;53.40;;
28174;SDS011;59417;44.788;10.334;2023-02-22T00:36:57;83.25;;;52.08;;
28174;SDS011;59417;44.788;10.334;2023-02-22T00:39:27;89.28;;;54.92;;
28174;SDS011;59417;44.788;10.334;2023-02-22T00:41:53;90.25;;;53.47;;
28174;SDS011;59417;44.788;10.334;2023-02-22T00:44:21;89.78;;;55.00;;
28174;SDS011;59417;44.788;10.334;2023-02-22T00:46:48;84.93;;;54.00;;
28174;SDS011;59417;44.788;10.334;2023-02-22T00:49:17;83.53;;;53.77;;
28174;SDS011;59417;44.788;10.334;2023-02-22T00:51:43;85.88;;;54.47;;
28174;SDS011;59417;44.788;10.334;2023-02-22T00:54:12;93.38;;;54.55;;
28174;SDS011;59417;44.788;10.334;2023-02-22T00:56:40;88.70;;;55.33;;
28174;SDS011;59417;44.788;10.334;2023-02-22T00:59:06;81.10;;;54.10;;
28174;SDS011;59417;44.788;10.334;2023-02-22T01:01:32;83.03;;;51.78;;
28174;SDS011;59417;44.788;10.334;2023-02-22T01:04:00;85.65;;;54.85;;
28174;SDS011;59417;44.788;10.334;2023-02-22T01:06:26;88.20;;;54.70;;
28174;SDS011;59417;44.788;10.334;2023-02-22T01:08:53;84.18;;;53.92;;
28174;SDS011;59417;44.788;10.334;2023-02-22T01:11:19;85.70;;;53.75;;
28174;SDS011;59417;44.788;10.334;2023-02-22T01:13:46;86.53;;;51.60;;
28174;SDS011;59417;44.788;10.334;2023-02-22T01:16:12;88.72;;;54.08;;
28174;SDS011;59417;44.788;10.334;2023-02-22T01:18:39;82.30;;;52.13;;
28174;SDS011;59417;44.788;10.334;2023-02-22T01:21:05;89.22;;;54.17;;
28174;SDS011;59417;44.788;10.334;2023-02-22T01:23:31;93.25;;;55.30;;
28174;SDS011;59417;44.788;10.334;2023-02-22T01:25:57;87.45;;;54.65;;
28174;SDS011;59417;44.788;10.334;2023-02-22T01:28:23;90.03;;;54.05;;
28174;SDS011;59417;44.788;10.334;2023-02-22T01:30:49;86.07;;;54.13;;
28174;SDS011;59417;44.788;10.334;2023-02-22T01:33:15;85.78;;;53.83;;
28174;SDS011;59417;44.788;10.334;2023-02-22T01:35:42;89.15;;;53.58;;
28174;SDS011;59417;44.788;10.334;2023-02-22T01:38:10;96.82;;;58.65;;
28174;SDS011;59417;44.788;10.334;2023-02-22T01:40:39;92.03;;;57.13;;
28174;SDS011;59417;44.788;10.334;2023-02-22T01:46:01;103.47;;;59.30;;
28174;SDS011;59417;44.788;10.334;2023-02-22T01:48:37;106.00;;;63.08;;
28174;SDS011;59417;44.788;10.334;2023-02-22T01:56:27;111.50;;;68.68;;
28174;SDS011;59417;44.788;10.334;2023-02-22T01:58:59;124.33;;;69.43;;
28174;SDS011;59417;44.788;10.334;2023-02-22T02:01:31;117.68;;;70.57;;
28174;SDS011;59417;44.788;10.334;2023-02-22T02:03:58;117.78;;;69.05;;
28174;SDS011;59417;44.788;10.334;2023-02-22T02:06:26;117.93;;;73.38;;
28174;SDS011;59417;44.788;10.334;2023-02-22T02:09:00;125.70;;;73.55;;
28174;SDS011;59417;44.788;10.334;2023-02-22T02:14:12;125.18;;;75.00;;
28174;SDS011;59417;44.788;10.334;2023-02-22T02:32:52;138.55;;;89.95;;
28174;SDS011;59417;44.788;10.334;2023-02-22T02:35:21;156.18;;;95.82;;
28174;SDS011;59417;44.788;10.334;2023-02-22T02:40:35;160.15;;;96.35;;
28174;SDS011;59417;44.788;10.334;2023-02-22T02:43:28;154.88;;;93.95;;
28174;SDS011;59417;44.788;10.334;2023-02-22T02:46:09;158.33;;;96.47;;
28174;SDS011;59417;44.788;10.334;2023-02-22T02:48:52;162.52;;;97.00;;
28174;SDS011;59417;44.788;10.334;2023-02-22T02:51:29;169.40;;;98.45;;
28174;SDS011;59417;44.788;10.334;2023-02-22T02:54:01;165.10;;;100.05;;
28174;SDS011;59417;44.788;10.334;2023-02-22T02:56:28;165.63;;;100.00;;
28174;SDS011;59417;44.788;10.334;2023-02-22T02:59:17;173.27;;;103.70;;
28174;SDS011;59417;44.788;10.334;2023-02-22T03:02:16;165.32;;;97.80;;
28174;SDS011;59417;44.788;10.334;2023-02-22T03:07:32;164.13;;;99.00;;
28174;SDS011;59417;44.788;10.334;2023-02-22T03:12:45;172.48;;;100.55;;
28174;SDS011;59417;44.788;10.334;2023-02-22T03:15:24;157.48;;;98.22;;
28174;SDS011;59417;44.788;10.334;2023-02-22T03:18:04;166.43;;;96.55;;
28174;SDS011;59417;44.788;10.334;2023-02-22T03:23:13;179.70;;;101.45;;
28174;SDS011;59417;44.788;10.334;2023-02-22T03:26:02;160.60;;;97.78;;
28174;SDS011;59417;44.788;10.334;2023-02-22T03:28:34;162.05;;;94.90;;
28174;SDS011;59417;44.788;10.334;2023-02-22T03:31:05;165.88;;;95.75;;
28174;SDS011;59417;44.788;10.334;2023-02-22T03:33:53;167.63;;;102.03;;
28174;SDS011;59417;44.788;10.334;2023-02-22T03:36:29;161.48;;;98.85;;
28174;SDS011;59417;44.788;10.334;2023-02-22T03:39:09;158.80;;;97.25;;
28174;SDS011;59417;44.788;10.334;2023-02-22T03:41:48;170.77;;;99.25;;
28174;SDS011;59417;44.788;10.334;2023-02-22T03:44:23;167.75;;;99.32;;
28174;SDS011;59417;44.788;10.334;2023-02-22T03:47:00;169.10;;;100.97;;
28174;SDS011;59417;44.788;10.334;2023-02-22T03:49:38;156.73;;;95.75;;
28174;SDS011;59417;44.788;10.334;2023-02-22T03:52:12;164.50;;;97.38;;
28174;SDS011;59417;44.788;10.334;2023-02-22T03:54:39;162.15;;;97.35;;
28174;SDS011;59417;44.788;10.334;2023-02-22T03:57:16;158.15;;;97.13;;
28174;SDS011;59417;44.788;10.334;2023-02-22T03:59:59;146.98;;;93.43;;
28174;SDS011;59417;44.788;10.334;2023-02-22T04:02:25;164.02;;;98.88;;
28174;SDS011;59417;44.788;10.334;2023-02-22T04:04:54;161.50;;;95.70;;
28174;SDS011;59417;44.788;10.334;2023-02-22T04:07:20;163.38;;;94.53;;
28174;SDS011;59417;44.788;10.334;2023-02-22T04:09:48;157.32;;;94.80;;
28174;SDS011;59417;44.788;10.334;2023-02-22T04:12:14;158.68;;;95.00;;
28174;SDS011;59417;44.788;10.334;2023-02-22T04:14:52;159.20;;;93.97;;
28174;SDS011;59417;44.788;10.334;2023-02-22T04:17:18;150.73;;;93.80;;
28174;SDS011;59417;44.788;10.334;2023-02-22T04:19:44;153.10;;;93.65;;
28174;SDS011;59417;44.788;10.334;2023-02-22T04:22:12;150.98;;;92.20;;
28174;SDS011;59417;44.788;10.334;2023-02-22T04:24:40;158.02;;;94.57;;
28174;SDS011;59417;44.788;10.334;2023-02-22T04:27:07;148.47;;;92.37;;
28174;SDS011;59417;44.788;10.334;2023-02-22T04:29:35;146.95;;;91.93;;
28174;SDS011;59417;44.788;10.334;2023-02-22T04:32:04;142.10;;;90.28;;
28174;SDS011;59417;44.788;10.334;2023-02-22T04:34:31;153.38;;;93.00;;
28174;SDS011;59417;44.788;10.334;2023-02-22T04:36:57;164.88;;;93.78;;
28174;SDS011;59417;44.788;10.334;2023-02-22T04:39:23;135.18;;;85.53;;
28174;SDS011;59417;44.788;10.334;2023-02-22T04:41:50;138.43;;;88.28;;
28174;SDS011;59417;44.788;10.334;2023-02-22T04:44:16;143.73;;;89.13;;
28174;SDS011;59417;44.788;10.334;2023-02-22T04:46:42;155.43;;;89.80;;
28174;SDS011;59417;44.788;10.334;2023-02-22T04:49:13;147.27;;;89.20;;
28174;SDS011;59417;44.788;10.334;2023-02-22T04:51:40;147.30;;;89.78;;
28174;SDS011;59417;44.788;10.334;2023-02-22T04:54:15;151.25;;;86.68;;
28174;SDS011;59417;44.788;10.334;2023-02-22T04:56:52;142.70;;;86.53;;
28174;SDS011;59417;44.788;10.334;2023-02-22T04:59:21;144.88;;;87.72;;
28174;SDS011;59417;44.788;10.334;2023-02-22T05:01:58;140.80;;;86.43;;
28174;SDS011;59417;44.788;10.334;2023-02-22T05:04:32;140.55;;;86.22;;
28174;SDS011;59417;44.788;10.334;2023-02-22T05:07:03;144.68;;;87.47;;
28174;SDS011;59417;44.788;10.334;2023-02-22T05:09:34;142.85;;;86.00;;
28174;SDS011;59417;44.788;10.334;2023-02-22T05:12:03;141.77;;;84.60;;
28174;SDS011;59417;44.788;10.334;2023-02-22T05:14:29;139.38;;;85.85;;
28174;SDS011;59417;44.788;10.334;2023-02-22T05:16:58;142.10;;;86.60;;
28174;SDS011;59417;44.788;10.334;2023-02-22T05:19:27;138.73;;;84.10;;
28174;SDS011;59417;44.788;10.334;2023-02-22T05:21:56;144.85;;;83.82;;
28174;SDS011;59417;44.788;10.334;2023-02-22T05:24:22;141.15;;;83.95;;
28174;SDS011;59417;44.788;10.334;2023-02-22T05:26:56;142.90;;;85.70;;
28174;SDS011;59417;44.788;10.334;2023-02-22T05:29:27;146.95;;;85.50;;
28174;SDS011;59417;44.788;10.334;2023-02-22T05:31:53;143.55;;;85.80;;
28174;SDS011;59417;44.788;10.334;2023-02-22T05:34:21;137.10;;;86.82;;
28174;SDS011;59417;44.788;10.334;2023-02-22T05:36:50;142.45;;;84.00;;
28174;SDS011;59417;44.788;10.334;2023-02-22T05:39:19;147.38;;;87.28;;
28174;SDS011;59417;44.788;10.334;2023-02-22T05:41:45;149.02;;;86.38;;
28174;SDS011;59417;44.788;10.334;2023-02-22T05:44:14;140.45;;;84.53;;
28174;SDS011;59417;44.788;10.334;2023-02-22T05:46:45;133.18;;;81.90;;
28174;SDS011;59417;44.788;10.334;2023-02-22T05:49:11;131.02;;;78.13;;
28174;SDS011;59417;44.788;10.334;2023-02-22T05:51:40;127.40;;;78.75;;
28174;SDS011;59417;44.788;10.334;2023-02-22T05:54:07;145.77;;;83.97;;
28174;SDS011;59417;44.788;10.334;2023-02-22T05:56:45;140.73;;;83.97;;
28174;SDS011;59417;44.788;10.334;2023-02-22T05:59:14;132.05;;;78.80;;
28174;SDS011;59417;44.788;10.334;2023-02-22T06:01:48;129.65;;;77.38;;
28174;SDS011;59417;44.788;10.334;2023-02-22T06:04:14;136.98;;;81.15;;
28174;SDS011;59417;44.788;10.334;2023-02-22T06:06:40;130.10;;;78.45;;
28174;SDS011;59417;44.788;10.334;2023-02-22T06:09:08;132.30;;;80.93;;
28174;SDS011;59417;44.788;10.334;2023-02-22T06:11:34;130.55;;;78.65;;
28174;SDS011;59417;44.788;10.334;2023-02-22T06:14:00;130.18;;;79.50;;
28174;SDS011;59417;44.788;10.334;2023-02-22T06:16:28;130.10;;;77.32;;
28174;SDS011;59417;44.788;10.334;2023-02-22T06:23:06;118.30;;;73.10;;
28174;SDS011;59417;44.788;10.334;2023-02-22T06:25:42;128.75;;;75.13;;
28174;SDS011;59417;44.788;10.334;2023-02-22T06:28:08;127.85;;;75.72;;
28174;SDS011;59417;44.788;10.334;2023-02-22T06:30:39;127.30;;;75.40;;
28174;SDS011;59417;44.788;10.334;2023-02-22T06:33:09;129.02;;;77.18;;
28174;SDS011;59417;44.788;10.334;2023-02-22T06:35:37;126.28;;;78.88;;
28174;SDS011;59417;44.788;10.334;2023-02-22T06:38:03;130.82;;;77.70;;
28174;SDS011;59417;44.788;10.334;2023-02-22T06:40:38;121.97;;;76.95;;
28174;SDS011;59417;44.788;10.334;2023-02-22T06:43:06;143.15;;;78.78;;
28174;SDS011;59417;44.788;10.334;2023-02-22T06:45:44;138.60;;;79.63;;
28174;SDS011;59417;44.788;10.334;2023-02-22T06:48:13;137.63;;;78.60;;
28174;SDS011;59417;44.788;10.334;2023-02-22T06:50:49;142.70;;;81.07;;
28174;SDS011;59417;44.788;10.334;2023-02-22T06:53:24;139.52;;;77.70;;
28174;SDS011;59417;44.788;10.334;2023-02-22T06:56:13;131.45;;;77.30;;
28174;SDS011;59417;44.788;10.334;2023-02-22T06:58:41;131.27;;;77.20;;
28174;SDS011;59417;44.788;10.334;2023-02-22T07:01:19;128.45;;;76.00;;
28174;SDS011;59417;44.788;10.334;2023-02-22T07:03:54;120.10;;;74.43;;
28174;SDS011;59417;44.788;10.334;2023-02-22T07:06:26;110.82;;;71.97;;
28174;SDS011;59417;44.788;10.334;2023-02-22T07:08:57;128.15;;;75.28;;
28174;SDS011;59417;44.788;10.334;2023-02-22T07:11:23;125.25;;;76.05;;
28174;SDS011;59417;44.788;10.334;2023-02-22T07:13:57;124.57;;;74.07;;
28174;SDS011;59417;44.788;10.334;2023-02-22T07:16:23;127.32;;;74.82;;
28174;SDS011;59417;44.788;10.334;2023-02-22T07:18:54;130.90;;;76.93;;
28174;SDS011;59417;44.788;10.334;2023-02-22T07:21:20;129.43;;;76.15;;
28174;SDS011;59417;44.788;10.334;2023-02-22T07:23:55;137.68;;;75.75;;
28174;SDS011;59417;44.788;10.334;2023-02-22T07:26:26;125.60;;;74.35;;
28174;SDS011;59417;44.788;10.334;2023-02-22T07:28:52;128.88;;;75.28;;
28174;SDS011;59417;44.788;10.334;2023-02-22T07:31:18;141.27;;;78.97;;
28174;SDS011;59417;44.788;10.334;2023-02-22T07:33:45;116.97;;;75.45;;
28174;SDS011;59417;44.788;10.334;2023-02-22T07:36:19;126.82;;;78.25;;
28174;SDS011;59417;44.788;10.334;2023-02-22T07:38:44;131.88;;;75.88;;
28174;SDS011;59417;44.788;10.334;2023-02-22T07:41:12;139.63;;;78.55;;
28174;SDS011;59417;44.788;10.334;2023-02-22T07:43:38;134.63;;;77.97;;
28174;SDS011;59417;44.788;10.334;2023-02-22T07:46:10;125.95;;;75.70;;
28174;SDS011;59417;44.788;10.334;2023-02-22T07:48:38;123.63;;;75.07;;
28174;SDS011;59417;44.788;10.334;2023-02-22T07:51:13;135.00;;;78.22;;
28174;SDS011;59417;44.788;10.334;2023-02-22T07:53:44;127.30;;;77.25;;
28174;SDS011;59417;44.788;10.334;2023-02-22T07:56:18;127.47;;;75.55;;
28174;SDS011;59417;44.788;10.334;2023-02-22T07:59:08;131.25;;;76.85;;
28174;SDS011;59417;44.788;10.334;2023-02-22T08:01:36;130.68;;;79.22;;
28174;SDS011;59417;44.788;10.334;2023-02-22T08:04:07;124.78;;;73.45;;
28174;SDS011;59417;44.788;10.334;2023-02-22T08:06:39;123.32;;;75.15;;
28174;SDS011;59417;44.788;10.334;2023-02-22T08:09:11;127.70;;;76.97;;
28174;SDS011;59417;44.788;10.334;2023-02-22T08:11:40;125.22;;;77.28;;
28174;SDS011;59417;44.788;10.334;2023-02-22T08:14:06;132.50;;;78.90;;
28174;SDS011;59417;44.788;10.334;2023-02-22T08:16:36;135.05;;;79.07;;
28174;SDS011;59417;44.788;10.334;2023-02-22T08:19:02;122.60;;;76.32;;
28174;SDS011;59417;44.788;10.334;2023-02-22T08:21:28;132.85;;;78.45;;
28174;SDS011;59417;44.788;10.334;2023-02-22T08:23:54;131.15;;;78.32;;
28174;SDS011;59417;44.788;10.334;2023-02-22T08:26:23;131.40;;;80.78;;
28174;SDS011;59417;44.788;10.334;2023-02-22T08:28:52;127.30;;;78.37;;
28174;SDS011;59417;44.788;10.334;2023-02-22T08:31:18;142.02;;;80.28;;
28174;SDS011;59417;44.788;10.334;2023-02-22T08:33:48;131.00;;;79.18;;
28174;SDS011;59417;44.788;10.334;2023-02-22T08:36:16;134.95;;;79.88;;
28174;SDS011;59417;44.788;10.334;2023-02-22T08:38:45;125.32;;;80.97;;
28174;SDS011;59417;44.788;10.334;2023-02-22T08:41:11;137.13;;;80.45;;
28174;SDS011;59417;44.788;10.334;2023-02-22T08:43:39;128.55;;;77.82;;
28174;SDS011;59417;44.788;10.334;2023-02-22T08:46:07;134.65;;;79.13;;
28174;SDS011;59417;44.788;10.334;2023-02-22T08:48:34;131.07;;;81.43;;
28174;SDS011;59417;44.788;10.334;2023-02-22T08:51:05;129.07;;;76.85;;
28174;SDS011;59417;44.788;10.334;2023-02-22T08:53:33;135.85;;;81.78;;
28174;SDS011;59417;44.788;10.334;2023-02-22T08:56:01;135.00;;;80.13;;
28174;SDS011;59417;44.788;10.334;2023-02-22T08:58:27;140.65;;;82.47;;
28174;SDS011;59417;44.788;10.334;2023-02-22T09:00:55;137.00;;;80.55;;
28174;SDS011;59417;44.788;10.334;2023-02-22T09:03:22;136.93;;;83.32;;
28174;SDS011;59417;44.788;10.334;2023-02-22T09:05:51;127.72;;;80.60;;
28174;SDS011;59417;44.788;10.334;2023-02-22T09:08:28;130.60;;;82.50;;
28174;SDS011;59417;44.788;10.334;2023-02-22T09:10:54;139.25;;;83.72;;
28174;SDS011;59417;44.788;10.334;2023-02-22T09:13:25;133.73;;;82.45;;
28174;SDS011;59417;44.788;10.334;2023-02-22T09:15:51;128.07;;;78.88;;
28174;SDS011;59417;44.788;10.334;2023-02-22T09:18:19;137.95;;;83.20;;
28174;SDS011;59417;44.788;10.334;2023-02-22T09:20:45;137.82;;;84.72;;
28174;SDS011;59417;44.788;10.334;2023-02-22T09:23:14;141.15;;;83.13;;
28174;SDS011;59417;44.788;10.334;2023-02-22T09:25:43;144.65;;;84.18;;
28174;SDS011;59417;44.788;10.334;2023-02-22T09:28:15;149.38;;;85.57;;
28174;SDS011;59417;44.788;10.334;2023-02-22T09:30:48;127.60;;;80.93;;
28174;SDS011;59417;44.788;10.334;2023-02-22T09:33:21;142.25;;;83.82;;
28174;SDS011;59417;44.788;10.334;2023-02-22T09:35:52;136.02;;;82.22;;
28174;SDS011;59417;44.788;10.334;2023-02-22T09:38:20;129.45;;;83.60;;
28174;SDS011;59417;44.788;10.334;2023-02-22T09:46:20;141.18;;;80.68;;
28174;SDS011;59417;44.788;10.334;2023-02-22T09:49:08;132.52;;;83.00;;
28174;SDS011;59417;44.788;10.334;2023-02-22T09:51:41;156.18;;;93.40;;
28174;SDS011;59417;44.788;10.334;2023-02-22T09:54:18;152.38;;;94.70;;
28174;SDS011;59417;44.788;10.334;2023-02-22T09:57:25;167.50;;;101.82;;
28174;SDS011;59417;44.788;10.334;2023-02-22T10:00:02;164.90;;;101.80;;
28174;SDS011;59417;44.788;10.334;2023-02-22T10:02:48;180.52;;;103.50;;
28174;SDS011;59417;44.788;10.334;2023-02-22T10:05:42;161.90;;;103.50;;
28174;SDS011;59417;44.788;10.334;2023-02-22T10:08:12;170.80;;;100.13;;
28174;SDS011;59417;44.788;10.334;2023-02-22T10:10:45;165.30;;;99.72;;
28174;SDS011;59417;44.788;10.334;2023-02-22T10:18:32;164.15;;;100.80;;
28174;SDS011;59417;44.788;10.334;2023-02-22T10:24:21;176.00;;;105.45;;
28174;SDS011;59417;44.788;10.334;2023-02-22T10:27:21;171.30;;;105.63;;
28174;SDS011;59417;44.788;10.334;2023-02-22T10:35:51;171.43;;;101.00;;
28174;SDS011;59417;44.788;10.334;2023-02-22T10:38:28;179.48;;;105.55;;
28174;SDS011;59417;44.788;10.334;2023-02-22T10:43:51;172.05;;;103.70;;
28174;SDS011;59417;44.788;10.334;2023-02-22T10:46:23;180.23;;;108.80;;
28174;SDS011;59417;44.788;10.334;2023-02-22T10:52:16;169.23;;;101.68;;
28174;SDS011;59417;44.788;10.334;2023-02-22T10:54:54;184.15;;;107.40;;
28174;SDS011;59417;44.788;10.334;2023-02-22T11:06:31;178.10;;;105.45;;
28174;SDS011;59417;44.788;10.334;2023-02-22T11:09:09;168.20;;;103.28;;
28174;SDS011;59417;44.788;10.334;2023-02-22T11:11:44;174.32;;;102.95;;
28174;SDS011;59417;44.788;10.334;2023-02-22T11:14:24;160.80;;;98.10;;
28174;SDS011;59417;44.788;10.334;2023-02-22T11:17:00;168.25;;;101.30;;
28174;SDS011;59417;44.788;10.334;2023-02-22T11:19:37;166.02;;;102.47;;
28174;SDS011;59417;44.788;10.334;2023-02-22T11:22:26;169.95;;;103.68;;
28174;SDS011;59417;44.788;10.334;2023-02-22T11:25:18;180.75;;;101.28;;
28174;SDS011;59417;44.788;10.334;2023-02-22T11:37:30;168.70;;;101.00;;
28174;SDS011;59417;44.788;10.334;2023-02-22T11:40:04;170.48;;;101.70;;
28174;SDS011;59417;44.788;10.334;2023-02-22T11:42:47;169.40;;;103.30;;
28174;SDS011;59417;44.788;10.334;2023-02-22T11:45:20;165.60;;;100.78;;
28174;SDS011;59417;44.788;10.334;2023-02-22T11:47:54;167.68;;;103.45;;
28174;SDS011;59417;44.788;10.334;2023-02-22T11:50:42;175.48;;;103.10;;
28174;SDS011;59417;44.788;10.334;2023-02-22T11:56:30;170.30;;;105.57;;
28174;SDS011;59417;44.788;10.334;2023-02-22T12:01:57;163.25;;;100.32;;
28174;SDS011;59417;44.788;10.334;2023-02-22T12:07:53;167.68;;;99.80;;
28174;SDS011;59417;44.788;10.334;2023-02-22T12:10:49;161.48;;;96.50;;
28174;SDS011;59417;44.788;10.334;2023-02-22T12:22:11;163.77;;;99.43;;
28174;SDS011;59417;44.788;10.334;2023-02-22T12:24:51;161.90;;;96.65;;
28174;SDS011;59417;44.788;10.334;2023-02-22T12:27:34;160.73;;;97.00;;
28174;SDS011;59417;44.788;10.334;2023-02-22T12:33:06;147.07;;;92.18;;
28174;SDS011;59417;44.788;10.334;2023-02-22T12:36:07;152.20;;;93.47;;
28174;SDS011;59417;44.788;10.334;2023-02-22T12:42:14;141.07;;;87.15;;
28174;SDS011;59417;44.788;10.334;2023-02-22T12:45:07;156.90;;;93.15;;
28174;SDS011;59417;44.788;10.334;2023-02-22T12:51:31;148.85;;;91.78;;
28174;SDS011;59417;44.788;10.334;2023-02-22T12:54:19;159.55;;;92.45;;
28174;SDS011;59417;44.788;10.334;2023-02-22T12:56:58;153.73;;;95.25;;
28174;SDS011;59417;44.788;10.334;2023-02-22T13:04:47;148.77;;;86.97;;
28174;SDS011;59417;44.788;10.334;2023-02-22T13:15:06;146.50;;;89.00;;
28174;SDS011;59417;44.788;10.334;2023-02-22T13:28:38;149.75;;;91.82;;
28174;SDS011;59417;44.788;10.334;2023-02-22T13:36:24;146.50;;;91.13;;
28174;SDS011;59417;44.788;10.334;2023-02-22T13:39:48;155.32;;;92.38;;
28174;SDS011;59417;44.788;10.334;2023-02-22T13:53:11;151.63;;;91.85;;
28174;SDS011;59417;44.788;10.334;2023-02-22T13:55:51;152.03;;;92.10;;
28174;SDS011;59417;44.788;10.334;2023-02-22T13:58:21;141.50;;;87.43;;
28174;SDS011;59417;44.788;10.334;2023-02-22T14:00:52;149.73;;;90.95;;
28174;SDS011;59417;44.788;10.334;2023-02-22T14:05:57;154.95;;;93.43;;
28174;SDS011;59417;44.788;10.334;2023-02-22T14:11:01;143.40;;;86.05;;
28174;SDS011;59417;44.788;10.334;2023-02-22T14:16:29;151.73;;;91.18;;
28174;SDS011;59417;44.788;10.334;2023-02-22T14:21:58;147.02;;;89.85;;
28174;SDS011;59417;44.788;10.334;2023-02-22T14:24:49;155.07;;;91.53;;
28174;SDS011;59417;44.788;10.334;2023-02-22T14:27:15;156.48;;;95.32;;
28174;SDS011;59417;44.788;10.334;2023-02-22T14:29:55;157.63;;;93.80;;
28174;SDS011;59417;44.788;10.334;2023-02-22T14:32:31;145.48;;;92.43;;
28174;SDS011;59417;44.788;10.334;2023-02-22T14:35:02;154.05;;;91.53;;
28174;SDS011;59417;44.788;10.334;2023-02-22T14:37:37;145.10;;;90.35;;
28174;SDS011;59417;44.788;10.334;2023-02-22T14:40:06;137.40;;;87.47;;
28174;SDS011;59417;44.788;10.334;2023-02-22T14:42:44;152.50;;;90.75;;
28174;SDS011;59417;44.788;10.334;2023-02-22T14:45:23;144.60;;;88.53;;
28174;SDS011;59417;44.788;10.334;2023-02-22T14:48:10;150.77;;;90.53;;
28174;SDS011;59417;44.788;10.334;2023-02-22T14:53:45;149.68;;;89.75;;
28174;SDS011;59417;44.788;10.334;2023-02-22T14:56:22;154.15;;;90.93;;
28174;SDS011;59417;44.788;10.334;2023-02-22T14:59:18;155.20;;;94.57;;
28174;SDS011;59417;44.788;10.334;2023-02-22T15:04:24;154.50;;;92.70;;
28174;SDS011;59417;44.788;10.334;2023-02-22T15:06:56;161.85;;;97.55;;
28174;SDS011;59417;44.788;10.334;2023-02-22T15:09:25;165.00;;;96.70;;
28174;SDS011;59417;44.788;10.334;2023-02-22T15:14:30;163.35;;;95.88;;
28174;SDS011;59417;44.788;10.334;2023-02-22T15:17:02;155.88;;;95.95;;
28174;SDS011;59417;44.788;10.334;2023-02-22T15:19:38;161.70;;;96.03;;
28174;SDS011;59417;44.788;10.334;2023-02-22T15:22:05;155.13;;;96.25;;
28174;SDS011;59417;44.788;10.334;2023-02-22T15:24:44;164.75;;;97.93;;
28174;SDS011;59417;44.788;10.334;2023-02-22T15:27:39;154.90;;;95.43;;
28174;SDS011;59417;44.788;10.334;2023-02-22T15:30:18;158.95;;;94.63;;
28174;SDS011;59417;44.788;10.334;2023-02-22T15:32:50;151.57;;;93.97;;
28174;SDS011;59417;44.788;10.334;2023-02-22T15:35:19;156.32;;;93.18;;
28174;SDS011;59417;44.788;10.334;2023-02-22T15:37:56;157.52;;;93.45;;
28174;SDS011;59417;44.788;10.334;2023-02-22T15:40:44;165.93;;;94.15;;
28174;SDS011;59417;44.788;10.334;2023-02-22T15:43:21;149.27;;;91.45;;
28174;SDS011;59417;44.788;10.334;2023-02-22T15:45:49;149.88;;;94.57;;
28174;SDS011;59417;44.788;10.334;2023-02-22T15:48:16;155.20;;;95.68;;
28174;SDS011;59417;44.788;10.334;2023-02-22T15:56:12;159.57;;;96.68;;
28174;SDS011;59417;44.788;10.334;2023-02-22T15:58:40;160.98;;;95.40;;
28174;SDS011;59417;44.788;10.334;2023-02-22T16:01:08;155.60;;;98.45;;
28174;SDS011;59417;44.788;10.334;2023-02-22T16:07:00;168.73;;;97.40;;
28174;SDS011;59417;44.788;10.334;2023-02-22T16:09:16;160.15;;;98.20;;
28174;SDS011;59417;44.788;10.334;2023-02-22T16:11:50;164.73;;;97.90;;
28174;SDS011;59417;44.788;10.334;2023-02-22T16:17:12;157.38;;;99.65;;
28174;SDS011;59417;44.788;10.334;2023-02-22T16:19:55;161.65;;;97.30;;
28174;SDS011;59417;44.788;10.334;2023-02-22T16:22:27;164.02;;;96.80;;
28174;SDS011;59417;44.788;10.334;2023-02-22T16:27:45;162.02;;;97.82;;
28174;SDS011;59417;44.788;10.334;2023-02-22T16:35:20;165.80;;;97.45;;
28174;SDS011;59417;44.788;10.334;2023-02-22T16:38:10;155.70;;;96.82;;
28174;SDS011;59417;44.788;10.334;2023-02-22T16:40:51;172.43;;;100.65;;
28174;SDS011;59417;44.788;10.334;2023-02-22T16:43:31;167.75;;;99.10;;
28174;SDS011;59417;44.788;10.334;2023-02-22T16:45:58;167.20;;;97.00;;
28174;SDS011;59417;44.788;10.334;2023-02-22T16:48:26;178.02;;;99.53;;
28174;SDS011;59417;44.788;10.334;2023-02-22T16:50:54;165.95;;;97.90;;
28174;SDS011;59417;44.788;10.334;2023-02-22T16:53:23;155.75;;;97.25;;
28174;SDS011;59417;44.788;10.334;2023-02-22T16:55:50;157.82;;;97.65;;
28174;SDS011;59417;44.788;10.334;2023-02-22T16:58:22;161.23;;;97.85;;
28174;SDS011;59417;44.788;10.334;2023-02-22T17:00:52;163.00;;;96.28;;
28174;SDS011;59417;44.788;10.334;2023-02-22T17:03:21;161.13;;;89.32;;
28174;SDS011;59417;44.788;10.334;2023-02-22T17:05:47;152.38;;;94.97;;
28174;SDS011;59417;44.788;10.334;2023-02-22T17:08:13;162.25;;;92.72;;
28174;SDS011;59417;44.788;10.334;2023-02-22T17:10:40;160.90;;;94.63;;
28174;SDS011;59417;44.788;10.334;2023-02-22T17:13:06;158.50;;;92.38;;
28174;SDS011;59417;44.788;10.334;2023-02-22T17:15:33;151.68;;;90.78;;
28174;SDS011;59417;44.788;10.334;2023-02-22T17:18:00;150.88;;;91.13;;
28174;SDS011;59417;44.788;10.334;2023-02-22T17:20:29;162.68;;;92.90;;
28174;SDS011;59417;44.788;10.334;2023-02-22T17:22:56;160.80;;;92.22;;
28174;SDS011;59417;44.788;10.334;2023-02-22T17:25:24;153.00;;;90.88;;
28174;SDS011;59417;44.788;10.334;2023-02-22T17:28:07;153.82;;;92.75;;
28174;SDS011;59417;44.788;10.334;2023-02-22T17:30:34;162.65;;;94.30;;
28174;SDS011;59417;44.788;10.334;2023-02-22T17:33:01;154.98;;;92.88;;
28174;SDS011;59417;44.788;10.334;2023-02-22T17:35:29;161.63;;;91.53;;
28174;SDS011;59417;44.788;10.334;2023-02-22T17:37:57;152.90;;;92.65;;
28174;SDS011;59417;44.788;10.334;2023-02-22T17:40:24;163.30;;;96.07;;